Rivolto Air Base

METAR LIPI TAF LIPQ
2 °C
°C
-
°C
1h
年龄
00:02:59
LT
23:02
UTC
0 ft

1.000

2.000

3.000

4.000

5.000

BKN 3.000
VFR
<?= Yii::t('app', 'Wind direction') ?> <?= Yii::t('app', 'of'); ?>
070°
07:25
日出
70%
湿度
风切变
关闭/下雪
RWY可视范围
RWY状况
垂直能见度
最低能见度
CAVOK
趋势
纠正
特别报告
1033 hPa
QNH
METAR LIPI 052155Z 07003KT 9999 BKN030 02/M03 Q1033 RMK BKN VIS MIN 9999 WIND THR06 09003KT WIND THR24 11002KT BLU
碎云
1 kt
1 kt
00:00
VFR
6 kt
01:00
VFR
6 kt
02:00
VFR
6 kt
03:00
VFR
6 kt
04:00
VFR
6 kt
05:00
VFR
6 kt
06:00
VFR
6 kt
10 km+
能见度
3.000 ft
天花板
3 kt
metar-taf.com/LIPI

Metar-Taf.com

视觉解码器

我们和第三方通过cookies跟踪您在我们网站上的互联网行为。如果你继续,我们认为你同意我们的饼干政策